createdAt,value
2023-04-16T00:00:21.981Z,100728.00
2023-04-16T00:05:44.514Z,100731.80
2023-04-16T00:10:47.168Z,100739.20
2023-04-16T00:15:49.757Z,100735.40
2023-04-16T00:20:53.464Z,100735.40
2023-04-16T00:25:59.798Z,100742.60
2023-04-16T00:31:02.636Z,100735.00
2023-04-16T00:36:05.735Z,100736.20
2023-04-16T00:41:08.282Z,100741.60
2023-04-16T00:46:12.330Z,100747.60
2023-04-16T00:51:15.758Z,100752.60
2023-04-16T00:56:20.495Z,100750.00
2023-04-16T01:01:23.347Z,100746.00
2023-04-16T01:06:26.797Z,100749.40
2023-04-16T01:11:29.455Z,100748.40
2023-04-16T01:16:32.913Z,100745.80
2023-04-16T01:21:35.812Z,100744.80
2023-04-16T01:26:38.420Z,100744.60
2023-04-16T01:31:41.144Z,100741.60
2023-04-16T01:36:43.956Z,100740.00
2023-04-16T01:41:46.563Z,100736.60
2023-04-16T01:46:49.234Z,100737.60
2023-04-16T01:51:52.934Z,100737.00
2023-04-16T01:56:55.592Z,100734.20
2023-04-16T02:02:11.026Z,100740.00
2023-04-16T02:07:14.201Z,100738.40
2023-04-16T02:12:17.788Z,100741.80
2023-04-16T02:17:20.473Z,100748.40
2023-04-16T02:22:23.099Z,100749.80
2023-04-16T02:27:26.054Z,100747.60
2023-04-16T02:32:28.775Z,100750.60
2023-04-16T02:37:31.401Z,100751.00
2023-04-16T02:42:33.978Z,100755.80
2023-04-16T02:47:36.540Z,100752.80
2023-04-16T02:52:39.429Z,100753.60
2023-04-16T02:57:42.615Z,100757.40
2023-04-16T03:02:45.437Z,100764.20
2023-04-16T03:07:48.286Z,100769.40
2023-04-16T03:12:51.047Z,100775.80
2023-04-16T03:17:54.674Z,100782.00
2023-04-16T03:22:57.560Z,100780.60
2023-04-16T03:28:00.110Z,100780.80
2023-04-16T03:33:02.750Z,100783.20
2023-04-16T03:38:05.396Z,100784.60
2023-04-16T03:43:07.934Z,100784.40
2023-04-16T03:48:10.710Z,100791.80
2023-04-16T03:53:14.255Z,100790.00
2023-04-16T03:58:17.529Z,100796.00
2023-04-16T04:03:20.472Z,100795.40
2023-04-16T04:08:23.364Z,100801.60
2023-04-16T04:13:27.126Z,100801.80
2023-04-16T04:18:29.772Z,100808.60
2023-04-16T04:23:32.387Z,100812.20
2023-04-16T04:28:35.998Z,100811.40
2023-04-16T04:33:38.708Z,100815.40
2023-04-16T04:38:41.474Z,100822.60
2023-04-16T04:43:44.083Z,100821.60
2023-04-16T04:48:46.664Z,100832.20
2023-04-16T04:53:49.267Z,100832.40
2023-04-16T04:58:51.953Z,100840.60
2023-04-16T05:03:54.580Z,100842.20
2023-04-16T05:08:57.280Z,100849.20
2023-04-16T05:13:59.826Z,100843.60
2023-04-16T05:19:02.724Z,100844.40
2023-04-16T05:24:06.278Z,100850.00
2023-04-16T05:29:08.927Z,100851.80
2023-04-16T05:34:11.994Z,100859.00
2023-04-16T05:39:16.465Z,100862.40
2023-04-16T05:44:19.039Z,100856.80
2023-04-16T05:49:22.200Z,100862.20
2023-04-16T05:54:24.800Z,100864.00
2023-04-16T05:59:27.716Z,100861.80
2023-04-16T06:04:31.084Z,100858.40
2023-04-16T06:09:33.868Z,100860.40
2023-04-16T06:14:36.666Z,100862.20
2023-04-16T06:19:39.241Z,100869.80
2023-04-16T06:24:42.089Z,100872.00
2023-04-16T06:29:44.714Z,100868.00
2023-04-16T06:34:47.267Z,100869.40
2023-04-16T06:39:49.928Z,100868.00
2023-04-16T06:44:52.532Z,100872.20
2023-04-16T06:49:55.139Z,100869.20
2023-04-16T06:54:58.579Z,100877.40
2023-04-16T07:00:01.300Z,100877.80
2023-04-16T07:05:04.832Z,100881.80
2023-04-16T07:10:08.765Z,100887.40
2023-04-16T07:15:11.546Z,100885.00
2023-04-16T07:20:14.274Z,100888.80
2023-04-16T07:25:17.195Z,100893.40
2023-04-16T07:30:19.773Z,100893.60
2023-04-16T07:35:22.462Z,100901.40
2023-04-16T07:40:25.199Z,100907.40
2023-04-16T07:45:27.954Z,100904.20
2023-04-16T07:50:30.989Z,100913.00
2023-04-16T07:55:33.602Z,100908.40
2023-04-16T08:00:36.370Z,100913.60
2023-04-16T08:05:39.045Z,100910.00
2023-04-16T08:10:41.737Z,100912.20
2023-04-16T08:15:44.430Z,100921.40
2023-04-16T08:20:47.253Z,100916.80
2023-04-16T08:25:51.741Z,100923.00
2023-04-16T08:30:55.249Z,100929.60
2023-04-16T08:35:57.941Z,100935.20
2023-04-16T08:41:06.643Z,100940.00
2023-04-16T08:46:11.622Z,100947.80
2023-04-16T08:51:17.269Z,100947.80
2023-04-16T08:56:24.644Z,100955.80
2023-04-16T09:01:27.876Z,100963.00
2023-04-16T09:06:32.498Z,100965.20
2023-04-16T09:11:36.074Z,100971.00
2023-04-16T09:16:39.814Z,100979.80
2023-04-16T09:21:47.344Z,100986.20
2023-04-16T09:26:52.741Z,100985.00
2023-04-16T09:32:06.547Z,100985.60
2023-04-16T09:37:17.190Z,100987.60
2023-04-16T09:42:44.303Z,100989.60
2023-04-16T09:47:47.313Z,100990.20
2023-04-16T09:52:51.615Z,100996.60
2023-04-16T09:58:02.014Z,100996.00
2023-04-16T10:03:07.089Z,100999.80
2023-04-16T10:08:14.623Z,100998.00
2023-04-16T10:13:19.209Z,101006.40
2023-04-16T10:18:22.974Z,101010.40
2023-04-16T10:23:26.672Z,101014.80
2023-04-16T10:28:30.671Z,101017.80
2023-04-16T10:33:37.170Z,101018.60
2023-04-16T10:38:45.965Z,101018.20
2023-04-16T10:43:50.899Z,101017.80
2023-04-16T10:48:55.813Z,101022.00
2023-04-16T10:54:19.481Z,101025.80
2023-04-16T10:59:24.120Z,101028.40
2023-04-16T11:04:33.262Z,101036.80
2023-04-16T11:10:02.168Z,101040.60
2023-04-16T11:15:06.353Z,101049.60
2023-04-16T11:20:26.129Z,101053.00
2023-04-16T11:25:31.590Z,101055.20
2023-04-16T11:30:37.305Z,101060.80
2023-04-16T11:35:41.514Z,101056.40
2023-04-16T11:40:44.473Z,101058.60
2023-04-16T11:46:20.181Z,101058.60
2023-04-16T11:51:27.407Z,101064.40
2023-04-16T11:56:33.108Z,101063.60
2023-04-16T12:01:37.849Z,101075.60
2023-04-16T12:06:40.837Z,101084.60
2023-04-16T12:11:43.746Z,101088.60
2023-04-16T12:16:46.785Z,101091.20
2023-04-16T12:21:51.088Z,101095.00
2023-04-16T12:27:03.072Z,101106.20
2023-04-16T12:32:23.416Z,101108.20
2023-04-16T12:37:26.748Z,101108.20
2023-04-16T12:42:35.645Z,101104.60
2023-04-16T12:47:38.288Z,101106.20
2023-04-16T12:52:41.093Z,101104.80
2023-04-16T12:57:44.557Z,101106.00
2023-04-16T13:02:47.658Z,101090.80
2023-04-16T13:07:50.708Z,101098.80
2023-04-16T13:12:53.520Z,101107.40
2023-04-16T13:17:56.390Z,101106.60
2023-04-16T13:22:59.112Z,101105.40
2023-04-16T13:28:01.917Z,101101.60
2023-04-16T13:33:04.648Z,101105.60
2023-04-16T13:38:07.324Z,101111.80
2023-04-16T13:43:10.148Z,101111.60
2023-04-16T13:48:12.870Z,101108.80
2023-04-16T13:53:15.620Z,101104.60
2023-04-16T13:58:18.333Z,101105.20
2023-04-16T14:03:20.946Z,101104.80
2023-04-16T14:08:23.650Z,101103.60
2023-04-16T14:13:26.320Z,101108.60
2023-04-16T14:18:28.917Z,101106.60
2023-04-16T14:23:31.833Z,101104.60
2023-04-16T14:28:35.786Z,101107.80
2023-04-16T14:33:38.877Z,101099.60
2023-04-16T14:38:43.318Z,101100.40
2023-04-16T14:43:46.113Z,101102.60
2023-04-16T14:48:48.730Z,101108.00
2023-04-16T14:53:51.564Z,101113.00
2023-04-16T14:58:54.171Z,101121.60
2023-04-16T15:03:58.304Z,101126.60
2023-04-16T15:09:04.011Z,101133.00
2023-04-16T15:14:06.901Z,101133.40
2023-04-16T15:19:09.856Z,101137.40
2023-04-16T15:24:12.828Z,101139.40
2023-04-16T15:29:15.971Z,101143.80
2023-04-16T15:34:18.538Z,101142.80
2023-04-16T15:39:21.671Z,101142.00
2023-04-16T15:44:24.273Z,101148.40
2023-04-16T15:49:27.004Z,101144.80
2023-04-16T15:54:31.716Z,101156.40
2023-04-16T15:59:34.471Z,101159.00
2023-04-16T16:04:37.301Z,101158.40
2023-04-16T16:09:40.076Z,101165.00
2023-04-16T16:14:44.246Z,101161.20
2023-04-16T16:19:47.110Z,101167.60
2023-04-16T16:24:53.801Z,101175.00
2023-04-16T16:29:56.693Z,101173.80
2023-04-16T16:34:59.277Z,101179.40
2023-04-16T16:40:01.833Z,101183.00
2023-04-16T16:45:06.114Z,101182.20
2023-04-16T16:50:11.409Z,101189.60
2023-04-16T17:00:21.539Z,101196.80
2023-04-16T17:05:24.286Z,101195.20
2023-04-16T17:10:26.993Z,101193.00
2023-04-16T17:15:29.753Z,101195.40
2023-04-16T17:20:33.900Z,101201.00
2023-04-16T17:25:36.709Z,101206.20
2023-04-16T17:30:39.353Z,101213.00
2023-04-16T17:35:41.982Z,101219.40
2023-04-16T17:40:44.656Z,101216.60
2023-04-16T17:45:47.270Z,101228.20
2023-04-16T17:50:50.151Z,101225.20
2023-04-16T17:55:55.246Z,101226.80
2023-04-16T18:00:59.507Z,101235.00
2023-04-16T18:06:02.284Z,101236.40
2023-04-16T18:11:08.777Z,101247.00
2023-04-16T18:16:17.711Z,101251.60
2023-04-16T18:21:20.637Z,101259.00
2023-04-16T18:26:23.354Z,101253.80
2023-04-16T18:31:26.775Z,101256.20
2023-04-16T18:36:29.641Z,101264.00
2023-04-16T18:41:32.328Z,101275.20
2023-04-16T18:46:34.955Z,101271.80
2023-04-16T18:51:37.620Z,101272.20
2023-04-16T18:56:40.280Z,101270.80
2023-04-16T19:01:43.208Z,101277.00
2023-04-16T19:06:48.196Z,101276.80
2023-04-16T19:11:51.006Z,101276.60
2023-04-16T19:16:53.979Z,101278.20
2023-04-16T19:21:56.589Z,101280.80
2023-04-16T19:26:59.150Z,101278.20
2023-04-16T19:32:02.729Z,101279.60
2023-04-16T19:37:05.791Z,101273.40
2023-04-16T19:42:08.434Z,101275.00
2023-04-16T19:47:11.403Z,101280.60
2023-04-16T19:52:13.997Z,101278.80
2023-04-16T19:57:16.611Z,101277.40
2023-04-16T20:02:19.332Z,101270.40
2023-04-16T20:07:22.153Z,101262.40
2023-04-16T20:12:24.742Z,101268.00
2023-04-16T20:17:27.331Z,101271.80
2023-04-16T20:22:29.905Z,101268.40
2023-04-16T20:27:33.814Z,101268.20
2023-04-16T20:32:36.400Z,101267.60
2023-04-16T20:37:41.942Z,101277.20
2023-04-16T20:42:47.558Z,101279.20
2023-04-16T20:47:51.133Z,101283.00
2023-04-16T20:52:53.789Z,101287.40
2023-04-16T20:57:56.657Z,101288.40
2023-04-16T21:02:59.422Z,101292.00
2023-04-16T21:08:02.528Z,101298.00
2023-04-16T21:13:05.157Z,101300.00
2023-04-16T21:18:09.243Z,101304.20
2023-04-16T21:23:11.823Z,101305.00
2023-04-16T21:28:14.479Z,101304.60
2023-04-16T21:33:17.660Z,101305.00
2023-04-16T21:38:21.183Z,101308.80
2023-04-16T21:43:24.111Z,101299.60
2023-04-16T21:48:28.379Z,101302.80
2023-04-16T21:53:32.047Z,101303.00
2023-04-16T21:58:34.814Z,101308.40
2023-04-16T22:03:40.483Z,101305.80
2023-04-16T22:08:43.431Z,101309.40
2023-04-16T22:13:47.814Z,101308.00
2023-04-16T22:18:50.797Z,101308.20
2023-04-16T22:23:53.354Z,101305.40
2023-04-16T22:28:56.435Z,101309.00
2023-04-16T22:33:59.811Z,101304.00
2023-04-16T22:39:08.444Z,101301.20
2023-04-16T22:44:11.148Z,101306.80
2023-04-16T22:49:14.068Z,101306.80
2023-04-16T22:54:16.699Z,101314.60
2023-04-16T22:59:19.235Z,101321.80
2023-04-16T23:04:21.807Z,101317.40
2023-04-16T23:09:24.473Z,101311.60
2023-04-16T23:14:27.059Z,101316.60
2023-04-16T23:19:31.200Z,101311.20
2023-04-16T23:24:34.024Z,101313.40
2023-04-16T23:29:37.337Z,101318.20
2023-04-16T23:34:40.028Z,101323.60
2023-04-16T23:39:42.655Z,101324.60
2023-04-16T23:44:45.714Z,101324.60
2023-04-16T23:49:48.312Z,101329.80
2023-04-16T23:54:50.932Z,101328.40
2023-04-16T23:59:53.603Z,101320.20
